Time;durP1;ratioP1;P1;durP2;ratioP2;P2;SDS_P1;SDS_P2;PMS_P1;PMS_P2;Temp;Humidity;BMP_temperature;BMP_pressure;BME280_temperature;BME280_humidity;BME280_pressure;Samples;Min_cycle;Max_cycle;Signal;HPM_P1;HPM_P2
2023/05/27 00:00:18;;;;;;;13.20;10.85;;;;;;;17.15;59.23;99515.31;5054762;28;20108;-64
2023/05/27 00:02:43;;;;;;;19.77;10.98;;;;;;;17.13;59.14;99519.22;5037273;28;20095;-63
2023/05/27 00:05:09;;;;;;;15.48;11.32;;;;;;;17.07;59.66;99508.06;5054689;28;20025;-65
2023/05/27 00:07:34;;;;;;;17.58;10.63;;;;;;;17.11;59.57;99518.53;5054663;28;20029;-64
2023/05/27 00:10:00;;;;;;;14.15;10.30;;;;;;;17.05;59.51;99522.78;5054709;28;20032;-63
2023/05/27 00:12:25;;;;;;;14.25;10.60;;;;;;;17.03;59.58;99525.66;5055042;28;20116;-63
2023/05/27 00:14:51;;;;;;;15.55;10.15;;;;;;;16.96;59.70;99497.59;5054677;28;20045;-63
2023/05/27 00:17:17;;;;;;;13.25;9.73;;;;;;;16.96;59.80;99505.72;5054136;28;20045;-64
2023/05/27 00:19:47;;;;;;;15.18;9.57;;;;;;;16.83;59.95;99489.16;5054369;28;20068;-63
2023/05/27 00:22:14;;;;;;;11.90;9.88;;;;;;;16.94;60.18;99503.16;5054803;28;20033;-65
2023/05/27 00:24:41;;;;;;;12.30;9.82;;;;;;;16.88;60.26;99497.59;5054473;28;20025;-62
2023/05/27 00:27:07;;;;;;;11.20;10.05;;;;;;;16.86;60.54;99491.53;5054437;28;20025;-63
2023/05/27 00:29:33;;;;;;;10.70;9.15;;;;;;;16.87;60.80;99496.78;5054850;28;20047;-64
2023/05/27 00:32:02;;;;;;;10.55;9.45;;;;;;;16.90;60.74;99501.00;5052760;28;20032;-64
2023/05/27 00:34:29;;;;;;;13.77;9.02;;;;;;;16.85;60.90;99495.25;5053975;28;20091;-66
2023/05/27 00:36:54;;;;;;;11.43;8.90;;;;;;;16.83;61.21;99492.72;5054228;28;20048;-63
2023/05/27 00:39:20;;;;;;;12.15;9.23;;;;;;;16.87;61.19;99488.66;5054483;28;20437;-63
2023/05/27 00:41:49;;;;;;;11.27;9.15;;;;;;;16.83;60.95;99492.72;5036033;28;20515;-62
2023/05/27 00:44:15;;;;;;;9.40;8.45;;;;;;;16.81;61.34;99499.31;5036476;28;20368;-63
2023/05/27 00:46:40;;;;;;;10.18;9.18;;;;;;;16.64;61.20;99480.44;5054677;28;20173;-62
2023/05/27 00:49:06;;;;;;;12.10;9.52;;;;;;;16.77;61.47;99498.84;5054054;28;20033;-63
2023/05/27 00:51:31;;;;;;;12.93;9.65;;;;;;;16.79;61.61;99513.84;5053756;28;20098;-64
2023/05/27 00:53:57;;;;;;;11.07;8.98;;;;;;;16.58;61.81;99489.22;5053805;28;20028;-63
2023/05/27 00:56:22;;;;;;;11.25;9.32;;;;;;;16.66;62.00;99497.34;5053956;28;20053;-63
2023/05/27 00:58:48;;;;;;;12.57;8.98;;;;;;;16.66;61.92;99505.44;5053600;28;20033;-63
2023/05/27 01:01:14;;;;;;;11.93;9.20;;;;;;;16.70;62.13;99517.59;5053639;28;20033;-63
2023/05/27 01:03:41;;;;;;;10.80;9.70;;;;;;;16.68;62.14;99516.06;5053971;28;20025;-64
2023/05/27 01:06:28;;;;;;;10.55;9.13;;;;;;;16.74;62.46;99524.34;5036577;28;20040;-63
2023/05/27 01:09:35;;;;;;;10.35;8.93;;;;;;;16.83;62.33;99521.63;5053534;28;20045;-63
2023/05/27 01:12:19;;;;;;;11.98;9.32;;;;;;;16.73;62.35;99529.91;5014546;28;20446;-64
2023/05/27 01:14:48;;;;;;;10.98;9.50;;;;;;;16.65;62.65;99518.09;5033740;28;20049;-65
2023/05/27 01:17:16;;;;;;;10.35;9.32;;;;;;;16.73;62.47;99516.38;5052454;28;20460;-63
2023/05/27 01:19:45;;;;;;;10.95;9.35;;;;;;;16.67;62.85;99498.16;5035603;28;20384;-63
2023/05/27 01:22:14;;;;;;;13.50;8.82;;;;;;;16.90;62.75;99517.22;5053397;28;20029;-64
2023/05/27 01:24:42;;;;;;;10.95;9.65;;;;;;;16.86;62.83;99514.00;5053834;28;20401;-63
2023/05/27 01:27:15;;;;;;;11.05;8.98;;;;;;;16.94;63.05;99518.56;5053679;28;20052;-64
2023/05/27 01:29:41;;;;;;;12.38;8.98;;;;;;;16.98;63.27;99527.16;5053222;28;20076;-62
2023/05/27 01:32:57;;;;;;;13.93;9.15;;;;;;;17.15;63.20;99522.59;5052711;28;20066;-63
2023/05/27 01:35:49;;;;;;;10.87;8.60;;;;;;;17.20;63.07;99533.72;5040111;28;20048;-63
2023/05/27 01:38:18;;;;;;;12.25;9.55;;;;;;;17.21;63.10;99538.94;5053096;28;20094;-62
2023/05/27 01:40:45;;;;;;;10.70;9.57;;;;;;;17.16;63.38;99527.81;5052678;28;20033;-63
2023/05/27 01:43:12;;;;;;;10.25;9.20;;;;;;;17.16;63.56;99518.88;5052924;28;20457;-63
2023/05/27 01:45:38;;;;;;;11.35;8.82;;;;;;;17.16;63.55;99522.41;5053029;28;20091;-64
2023/05/27 01:48:04;;;;;;;10.13;9.13;;;;;;;17.13;63.50;99506.53;5052620;28;20492;-67
2023/05/27 01:50:33;;;;;;;11.88;8.63;;;;;;;17.14;62.48;99519.03;5053081;28;20360;-62
2023/05/27 01:53:00;;;;;;;9.32;8.43;;;;;;;17.17;61.92;99528.66;5052981;28;20087;-64
2023/05/27 01:55:25;;;;;;;10.82;8.82;;;;;;;17.15;61.06;99517.19;5035176;28;20483;-64
2023/05/27 01:57:51;;;;;;;9.57;8.68;;;;;;;17.16;61.02;99532.41;5053060;28;20058;-64
2023/05/27 02:00:16;;;;;;;10.88;8.85;;;;;;;17.10;60.83;99522.25;5034755;28;20377;-63
2023/05/27 02:02:44;;;;;;;16.45;9.43;;;;;;;16.93;61.12;99493.38;5035726;28;20060;-64
2023/05/27 02:05:10;;;;;;;9.75;8.75;;;;;;;17.13;61.28;99521.94;5052471;28;20427;-63
2023/05/27 02:07:36;;;;;;;10.60;9.48;;;;;;;17.21;61.04;99532.72;5052427;28;20036;-63
2023/05/27 02:10:02;;;;;;;10.70;9.35;;;;;;;17.19;60.95;99537.44;5053287;28;20041;-62
2023/05/27 02:12:30;;;;;;;12.52;9.35;;;;;;;17.13;60.66;99517.34;5052758;28;20033;-62
2023/05/27 02:14:56;;;;;;;13.48;9.15;;;;;;;17.24;60.41;99535.06;5052078;28;20090;-63
2023/05/27 02:17:24;;;;;;;9.65;8.68;;;;;;;17.22;59.84;99528.97;5052837;28;20049;-63
2023/05/27 02:19:50;;;;;;;10.82;8.95;;;;;;;17.27;59.20;99534.72;5052337;28;20065;-63
2023/05/27 02:22:16;;;;;;;10.20;8.18;;;;;;;17.15;58.63;99512.59;5034605;28;20112;-64
2023/05/27 02:24:42;;;;;;;10.57;7.80;;;;;;;17.29;57.80;99531.84;5052420;28;20029;-67
2023/05/27 02:27:07;;;;;;;11.32;8.35;;;;;;;17.30;57.46;99533.53;5052226;28;20033;-63
2023/05/27 02:29:33;;;;;;;9.20;8.10;;;;;;;17.34;57.48;99534.84;5052323;28;20053;-63
2023/05/27 02:31:59;;;;;;;10.32;8.40;;;;;;;17.41;57.23;99552.06;5052612;28;20029;-62
2023/05/27 02:34:25;;;;;;;10.70;8.55;;;;;;;17.40;57.17;99538.72;5052328;28;20856;-63
2023/05/27 02:36:50;;;;;;;10.18;8.85;;;;;;;17.45;56.51;99541.75;5052128;28;20041;-63
2023/05/27 02:39:16;;;;;;;9.00;8.20;;;;;;;17.49;56.20;99553.91;5051771;28;20096;-63
2023/05/27 02:41:42;;;;;;;11.00;8.23;;;;;;;17.57;55.83;99556.56;5052732;28;20524;-63
2023/05/27 02:44:07;;;;;;;9.70;7.78;;;;;;;17.59;55.14;99557.22;5052231;28;20090;-64
2023/05/27 02:46:32;;;;;;;12.55;8.32;;;;;;;17.59;54.86;99559.09;5052322;28;20025;-62
2023/05/27 02:48:58;;;;;;;11.10;7.30;;;;;;;17.61;54.87;99568.75;5051892;28;20029;-62
2023/05/27 02:51:24;;;;;;;12.77;7.78;;;;;;;17.72;54.43;99569.38;5052353;28;20029;-63
2023/05/27 02:53:50;;;;;;;8.52;7.47;;;;;;;17.78;53.53;99576.78;5052090;28;20033;-62
2023/05/27 02:56:15;;;;;;;8.13;7.32;;;;;;;17.75;52.78;99569.88;5036335;28;20024;-63
2023/05/27 02:58:41;;;;;;;11.07;6.80;;;;;;;17.71;51.92;99557.69;5056392;28;20044;-64
2023/05/27 03:01:06;;;;;;;11.73;6.78;;;;;;;17.80;51.73;99582.84;5056656;28;20353;-66
2023/05/27 03:03:32;;;;;;;9.63;6.75;;;;;;;17.91;51.25;99587.03;5056030;28;20021;-66
2023/05/27 03:05:57;;;;;;;10.25;7.30;;;;;;;18.07;50.80;99588.81;5055690;28;20174;-63
2023/05/27 03:08:23;;;;;;;6.95;6.20;;;;;;;18.16;50.80;99587.78;5056267;28;20033;-62
2023/05/27 03:10:48;;;;;;;9.38;6.50;;;;;;;18.34;50.12;99594.78;5022431;28;20136;-63
2023/05/27 03:13:14;;;;;;;8.77;6.53;;;;;;;18.55;49.29;99596.81;5055703;28;20389;-62
2023/05/27 03:15:39;;;;;;;10.10;6.68;;;;;;;18.82;49.03;99586.41;5055633;28;20040;-63
2023/05/27 03:18:05;;;;;;;8.90;6.60;;;;;;;19.13;48.55;99599.00;5056395;28;20481;-64
2023/05/27 03:20:31;;;;;;;7.75;6.85;;;;;;;19.54;46.97;99584.16;5056310;28;20040;-64
2023/05/27 03:22:57;;;;;;;9.20;6.55;;;;;;;19.88;45.97;99579.13;5056001;28;20843;-63
2023/05/27 03:25:22;;;;;;;14.80;6.65;;;;;;;20.15;44.82;99588.44;5055436;28;20060;-63
2023/05/27 03:27:48;;;;;;;8.23;6.25;;;;;;;20.49;43.88;99581.44;5037828;28;20048;-63
2023/05/27 03:30:14;;;;;;;7.97;5.50;;;;;;;20.97;43.10;99592.78;5056164;28;20102;-64
2023/05/27 03:32:39;;;;;;;9.40;5.85;;;;;;;21.53;41.87;99583.69;5038296;28;20033;-64
2023/05/27 03:35:05;;;;;;;7.97;6.28;;;;;;;22.04;40.21;99581.63;5055641;28;20384;-64
2023/05/27 03:37:31;;;;;;;8.05;5.82;;;;;;;22.39;38.79;99577.91;5055053;28;20052;-63
2023/05/27 03:39:57;;;;;;;10.07;5.60;;;;;;;22.82;38.03;99591.22;5055839;28;20040;-63
2023/05/27 03:42:22;;;;;;;8.98;5.60;;;;;;;23.23;36.98;99595.56;5055190;28;20037;-63
2023/05/27 03:44:48;;;;;;;6.85;5.10;;;;;;;23.89;35.63;99584.66;5055137;28;20063;-64
2023/05/27 03:47:17;;;;;;;7.75;5.32;;;;;;;24.46;34.79;99573.00;5055224;28;20361;-63
2023/05/27 03:49:43;;;;;;;8.85;4.47;;;;;;;24.61;33.13;99552.69;5037461;28;20021;-64
2023/05/27 03:52:08;;;;;;;5.57;4.55;;;;;;;25.09;32.69;99589.53;5055370;28;20326;-63
2023/05/27 03:54:34;;;;;;;5.32;4.60;;;;;;;25.64;31.78;99597.00;5055265;28;20411;-63
2023/05/27 03:56:59;;;;;;;6.25;5.30;;;;;;;26.11;30.38;99600.19;5054955;28;20071;-64
2023/05/27 03:59:25;;;;;;;5.20;4.47;;;;;;;26.57;29.32;99587.72;5055303;28;20051;-64
2023/05/27 04:01:50;;;;;;;5.07;4.60;;;;;;;27.15;28.22;99599.06;5054887;28;20463;-65
2023/05/27 04:04:16;;;;;;;4.82;4.35;;;;;;;27.44;27.66;99595.53;5037000;28;20033;-65
2023/05/27 04:06:41;;;;;;;4.78;4.25;;;;;;;27.97;26.79;99609.31;5054862;28;20033;-63
2023/05/27 04:09:07;;;;;;;8.60;4.60;;;;;;;28.57;25.80;99598.88;5054657;28;20090;-64
2023/05/27 04:11:33;;;;;;;6.78;4.65;;;;;;;29.22;25.33;99596.66;5055028;28;20094;-63
2023/05/27 04:13:58;;;;;;;5.95;4.25;;;;;;;30.15;23.82;99611.66;5054765;28;20063;-63
2023/05/27 04:16:24;;;;;;;4.65;4.20;;;;;;;30.63;22.71;99616.59;5054420;28;20044;-63
2023/05/27 04:18:51;;;;;;;6.80;4.30;;;;;;;30.61;22.93;99614.06;5054794;28;20491;-63
2023/05/27 04:21:18;;;;;;;5.80;4.22;;;;;;;30.68;22.43;99615.78;5055023;28;20244;-63
2023/05/27 04:23:43;;;;;;;5.82;4.40;;;;;;;30.75;22.35;99611.69;5020501;28;20025;-65
2023/05/27 04:26:09;;;;;;;8.85;4.20;;;;;;;30.91;22.18;99614.59;5054553;28;20036;-63
2023/05/27 04:28:35;;;;;;;5.35;4.32;;;;;;;31.16;21.38;99621.41;5055070;28;20571;-64
2023/05/27 04:31:01;;;;;;;5.55;3.97;;;;;;;31.49;21.18;99623.03;5054351;28;20033;-63
2023/05/27 04:33:26;;;;;;;4.72;4.07;;;;;;;31.64;20.40;99616.72;5036300;28;20041;-64
2023/05/27 04:35:53;;;;;;;6.78;3.97;;;;;;;32.35;20.60;99628.34;5054602;28;20094;-63
2023/05/27 04:38:20;;;;;;;5.82;3.97;;;;;;;33.02;19.30;99612.88;5037299;28;20040;-63
2023/05/27 04:40:52;;;;;;;5.78;3.70;;;;;;;33.85;18.55;99623.78;5053906;28;20456;-65
2023/05/27 04:43:18;;;;;;;5.93;3.80;;;;;;;34.47;17.93;99627.03;5053628;28;20394;-64
2023/05/27 04:45:45;;;;;;;4.28;3.65;;;;;;;34.98;17.34;99625.03;5036868;28;20334;-64
2023/05/27 04:48:11;;;;;;;4.90;3.50;;;;;;;35.05;17.01;99625.53;5054526;28;20025;-63
2023/05/27 04:50:36;;;;;;;6.95;3.83;;;;;;;35.05;16.49;99621.91;5054011;28;20025;-65
2023/05/27 04:53:02;;;;;;;5.82;3.15;;;;;;;35.30;16.53;99625.53;5053713;28;20533;-67
2023/05/27 04:55:28;;;;;;;6.82;3.65;;;;;;;35.84;15.97;99629.13;5036403;28;20411;-66
2023/05/27 04:57:53;;;;;;;3.78;3.22;;;;;;;36.37;15.08;99627.31;5054012;28;20053;-66
2023/05/27 05:00:35;;;;;;;5.22;3.10;;;;;;;36.39;14.62;99627.81;5053531;28;20025;-66
2023/05/27 05:03:02;;;;;;;4.00;3.00;;;;;;;36.63;15.01;99641.72;5053675;28;20322;-65
2023/05/27 05:05:28;;;;;;;5.07;3.00;;;;;;;37.08;13.99;99636.81;5053917;28;20037;-65
2023/05/27 05:07:53;;;;;;;4.75;3.33;;;;;;;37.30;13.73;99636.13;5053948;28;20137;-66
2023/05/27 05:10:19;;;;;;;5.93;3.22;;;;;;;37.56;13.83;99636.47;5035653;28;20024;-67
2023/05/27 05:12:44;;;;;;;6.72;3.00;;;;;;;38.31;12.92;99635.44;5035816;28;20037;-66
2023/05/27 05:15:10;;;;;;;5.47;2.88;;;;;;;38.63;13.19;99633.63;5053835;28;20060;-65
2023/05/27 05:17:35;;;;;;;5.57;2.90;;;;;;;39.12;12.74;99638.56;5053727;28;20045;-65
2023/05/27 05:20:03;;;;;;;6.22;2.80;;;;;;;39.54;12.34;99633.47;5035066;28;20369;-66
2023/05/27 05:22:31;;;;;;;6.07;2.47;;;;;;;39.64;11.85;99631.56;5047492;28;20048;-65
2023/05/27 05:24:57;;;;;;;6.60;2.95;;;;;;;39.39;11.24;99631.13;5053066;28;20360;-67
2023/05/27 05:27:23;;;;;;;6.78;2.70;;;;;;;39.03;11.45;99642.13;5053117;28;20479;-66
2023/05/27 05:29:48;;;;;;;3.95;2.65;;;;;;;39.05;11.43;99645.41;5032274;28;20032;-66
2023/05/27 05:32:14;;;;;;;9.75;2.90;;;;;;;38.92;11.29;99626.75;5052562;28;20099;-68
2023/05/27 05:34:40;;;;;;;6.43;2.50;;;;;;;38.53;11.14;99631.91;5053238;28;20028;-65
2023/05/27 05:37:06;;;;;;;6.80;2.80;;;;;;;37.97;11.98;99645.97;5052741;28;20063;-66
2023/05/27 05:39:32;;;;;;;5.57;2.53;;;;;;;38.04;11.84;99645.56;5035053;28;20033;-67
2023/05/27 05:41:57;;;;;;;3.22;2.47;;;;;;;38.05;11.85;99648.06;5034921;28;20131;-66
2023/05/27 05:44:25;;;;;;;3.50;2.38;;;;;;;38.65;11.42;99645.31;5052215;28;20032;-65
2023/05/27 05:46:51;;;;;;;5.95;2.90;;;;;;;39.87;10.28;99640.69;5034568;28;20052;-65
2023/05/27 05:49:18;;;;;;;5.97;2.40;;;;;;;41.17;9.62;99669.13;5052360;28;20071;-65
2023/05/27 05:51:44;;;;;;;4.53;2.53;;;;;;;41.60;9.11;99641.22;5052765;28;20054;-64
2023/05/27 05:54:09;;;;;;;3.13;2.60;;;;;;;41.67;8.91;99665.97;5052284;28;20029;-64
2023/05/27 05:56:35;;;;;;;5.28;2.38;;;;;;;42.04;8.92;99652.25;5052672;28;20310;-66
2023/05/27 05:59:00;;;;;;;4.88;2.78;;;;;;;42.59;8.09;99653.16;5052911;28;20036;-65
2023/05/27 06:01:29;;;;;;;6.30;2.75;;;;;;;42.85;8.32;99654.06;5035415;28;20082;-65
2023/05/27 06:03:56;;;;;;;6.60;3.00;;;;;;;42.65;8.39;99665.00;5052310;28;20447;-66
2023/05/27 06:06:21;;;;;;;3.65;2.70;;;;;;;41.81;8.79;99663.75;5034950;28;20033;-65
2023/05/27 06:08:47;;;;;;;6.05;2.72;;;;;;;42.18;8.85;99652.78;5052932;28;20033;-65
2023/05/27 06:11:13;;;;;;;2.78;2.30;;;;;;;42.99;8.25;99651.78;5035059;28;20122;-65
2023/05/27 06:13:38;;;;;;;3.33;2.38;;;;;;;43.82;7.79;99650.97;5052224;28;20120;-65
2023/05/27 06:16:04;;;;;;;5.13;2.38;;;;;;;44.53;7.70;99652.72;5034889;28;20037;-66
2023/05/27 06:18:30;;;;;;;4.95;2.53;;;;;;;45.16;6.98;99659.72;5052128;28;20059;-66
2023/05/27 06:20:55;;;;;;;2.72;2.45;;;;;;;45.53;6.74;99656.63;5052489;28;20032;-65
2023/05/27 06:23:21;;;;;;;2.88;2.25;;;;;;;46.31;6.43;99669.38;5052432;28;20035;-65
2023/05/27 06:25:46;;;;;;;2.78;2.38;;;;;;;46.91;6.17;99662.53;5052324;28;20032;-66
2023/05/27 06:28:12;;;;;;;5.90;2.55;;;;;;;47.16;5.70;99642.31;5034979;28;20360;-65
2023/05/27 06:30:38;;;;;;;4.80;2.47;;;;;;;47.45;5.21;99665.50;5052588;28;20029;-66
2023/05/27 06:33:05;;;;;;;4.43;2.38;;;;;;;47.55;5.30;99667.72;5052780;28;20033;-67
2023/05/27 06:35:30;;;;;;;3.05;2.30;;;;;;;47.82;5.44;99662.06;5051775;28;20037;-65
2023/05/27 06:37:58;;;;;;;4.68;2.42;;;;;;;48.08;4.69;99674.63;5018135;28;20162;-65
2023/05/27 06:40:24;;;;;;;3.67;2.17;;;;;;;48.56;4.30;99676.06;5018360;28;20115;-65
2023/05/27 06:42:49;;;;;;;2.85;2.40;;;;;;;48.79;4.53;99677.97;5052130;28;20116;-66
2023/05/27 06:45:15;;;;;;;7.80;2.25;;;;;;;48.98;4.42;99674.94;5033686;28;20044;-65
2023/05/27 06:47:41;;;;;;;4.13;2.17;;;;;;;49.08;4.10;99667.72;5051743;28;20068;-67
2023/05/27 06:50:07;;;;;;;4.38;2.38;;;;;;;48.72;4.69;99655.97;5052312;28;20032;-65
2023/05/27 06:52:32;;;;;;;4.60;2.40;;;;;;;48.46;4.46;99660.53;5034867;28;20103;-66
2023/05/27 06:54:58;;;;;;;2.95;2.47;;;;;;;48.26;4.76;99645.66;5051201;28;20090;-65
2023/05/27 06:57:23;;;;;;;3.22;2.20;;;;;;;47.82;4.96;99650.72;5051879;28;20110;-65
2023/05/27 06:59:49;;;;;;;5.25;2.10;;;;;;;47.73;4.83;99653.00;5052243;28;20345;-65
2023/05/27 07:02:14;;;;;;;4.40;2.47;;;;;;;48.02;4.71;99653.44;5052414;28;20025;-66
2023/05/27 07:04:40;;;;;;;7.32;2.20;;;;;;;48.47;4.59;99641.47;5051574;28;20032;-65
2023/05/27 07:07:05;;;;;;;10.23;2.42;;;;;;;48.73;4.00;99651.91;5051725;28;20044;-65
2023/05/27 07:09:31;;;;;;;7.13;2.42;;;;;;;48.40;4.12;99664.94;5051598;28;20064;-64
2023/05/27 07:11:56;;;;;;;4.03;2.40;;;;;;;48.19;4.63;99662.59;5034334;28;20357;-66
2023/05/27 07:14:23;;;;;;;8.02;2.30;;;;;;;48.31;4.26;99659.50;5051456;28;20464;-65
2023/05/27 07:16:49;;;;;;;7.53;2.53;;;;;;;48.80;3.91;99673.94;5051583;28;20057;-66
2023/05/27 07:19:14;;;;;;;4.78;2.50;;;;;;;49.39;3.67;99670.44;5051958;28;20036;-65
2023/05/27 07:21:40;;;;;;;4.13;2.30;;;;;;;50.07;3.66;99681.53;5034657;28;20033;-65
2023/05/27 07:24:06;;;;;;;4.32;2.72;;;;;;;49.95;4.01;99676.19;5051174;28;20021;-66
2023/05/27 07:26:32;;;;;;;7.60;2.70;;;;;;;49.67;3.96;99686.13;5050919;28;20128;-66
2023/05/27 07:28:59;;;;;;;6.13;3.10;;;;;;;50.15;3.34;99685.22;5051994;28;20044;-66
2023/05/27 07:31:26;;;;;;;7.20;2.90;;;;;;;50.74;3.07;99677.78;5052182;28;20330;-66
2023/05/27 07:33:52;;;;;;;3.03;2.78;;;;;;;50.83;3.15;99670.47;5051095;28;20095;-66
2023/05/27 07:36:17;;;;;;;5.55;2.72;;;;;;;50.78;2.65;99664.34;5034283;28;20037;-67
2023/05/27 07:38:43;;;;;;;5.25;2.90;;;;;;;50.71;2.61;99633.00;5033755;28;20025;-67
2023/05/27 07:41:09;;;;;;;5.13;3.00;;;;;;;50.98;2.19;99662.78;5051426;28;20029;-65
2023/05/27 07:43:35;;;;;;;5.80;3.05;;;;;;;51.17;2.58;99659.94;5054772;28;20115;-67
2023/05/27 07:46:00;;;;;;;4.78;2.72;;;;;;;50.96;1.95;99667.25;5054387;28;20108;-65
2023/05/27 07:48:27;;;;;;;4.13;3.00;;;;;;;50.95;2.03;99669.31;5055062;28;20025;-66
2023/05/27 07:50:53;;;;;;;4.95;3.28;;;;;;;51.05;2.24;99672.56;5037417;28;20365;-66
2023/05/27 07:53:19;;;;;;;3.22;2.92;;;;;;;51.10;1.72;99664.44;5055064;28;20028;-66
2023/05/27 07:55:45;;;;;;;3.30;3.00;;;;;;;50.74;1.57;99670.03;5055134;28;20036;-66
2023/05/27 07:58:10;;;;;;;4.28;2.75;;;;;;;50.16;1.85;99671.78;5054786;28;20081;-66
2023/05/27 08:00:36;;;;;;;2.88;2.67;;;;;;;49.76;1.92;99665.84;5037236;28;20437;-65
2023/05/27 08:03:01;;;;;;;4.82;3.20;;;;;;;49.06;2.40;99663.63;5037463;28;20033;-67
2023/05/27 08:05:27;;;;;;;3.58;2.95;;;;;;;48.62;2.71;99657.47;5054120;28;20032;-57
2023/05/27 08:07:52;;;;;;;3.83;2.60;;;;;;;47.95;2.89;99670.34;5054463;28;20033;-63
2023/05/27 08:10:18;;;;;;;6.05;2.92;;;;;;;47.15;3.48;99657.69;5055134;28;20063;-59
2023/05/27 08:12:44;;;;;;;5.57;2.90;;;;;;;45.17;4.73;99641.56;5054474;28;20112;-60
2023/05/27 08:15:09;;;;;;;7.38;2.63;;;;;;;42.38;5.88;99658.75;5053932;28;20571;-61
2023/05/27 08:17:35;;;;;;;5.47;2.40;;;;;;;40.09;7.81;99669.75;5033544;28;20527;-60
2023/05/27 08:20:01;;;;;;;4.05;2.42;;;;;;;37.60;9.27;99653.44;5034066;28;20090;-64
2023/05/27 08:22:26;;;;;;;4.20;2.60;;;;;;;35.56;11.09;99647.56;5016315;28;20030;-64
2023/05/27 08:24:54;;;;;;;6.40;2.90;;;;;;;33.96;12.22;99652.34;5023179;28;20092;-56
2023/05/27 08:27:21;;;;;;;7.32;2.80;;;;;;;32.62;13.70;99666.06;5015270;28;20040;-57
2023/05/27 08:29:46;;;;;;;5.47;3.03;;;;;;;31.17;15.42;99661.78;5014750;28;20026;-55
2023/05/27 08:32:12;;;;;;;8.95;2.80;;;;;;;29.94;15.99;99663.84;5015435;28;20046;-61
2023/05/27 08:34:38;;;;;;;8.02;2.80;;;;;;;29.23;16.82;99670.81;5005066;28;20113;-54
2023/05/27 08:37:05;;;;;;;6.07;3.17;;;;;;;28.69;17.43;99674.00;5015082;28;20099;-57
2023/05/27 08:39:31;;;;;;;6.28;2.90;;;;;;;28.31;18.14;99659.81;5014730;28;20146;-52
2023/05/27 08:42:00;;;;;;;10.23;3.03;;;;;;;28.01;18.74;99660.84;5014155;28;20184;-54
2023/05/27 08:44:25;;;;;;;10.40;3.30;;;;;;;27.54;19.48;99663.69;5015628;28;20032;-54
2023/05/27 08:46:51;;;;;;;6.65;3.30;;;;;;;27.02;20.47;99662.47;5014137;28;20353;-51
2023/05/27 08:49:17;;;;;;;7.53;3.00;;;;;;;26.72;20.52;99658.66;5014341;28;20026;-55
2023/05/27 08:51:45;;;;;;;5.25;3.20;;;;;;;26.38;21.05;99674.78;5018817;28;20033;-51
2023/05/27 08:54:10;;;;;;;5.35;3.15;;;;;;;26.13;21.33;99658.41;5031313;28;20033;-55
2023/05/27 08:56:38;;;;;;;7.80;3.22;;;;;;;26.08;21.93;99667.34;5034345;28;20107;-53
2023/05/27 08:59:04;;;;;;;6.22;3.20;;;;;;;25.87;22.59;99639.34;5034161;28;20030;-50
2023/05/27 09:01:30;;;;;;;5.57;3.28;;;;;;;25.68;22.70;99663.16;5032516;28;20458;-54
2023/05/27 09:03:56;;;;;;;5.35;2.97;;;;;;;25.45;22.74;99659.19;5026832;28;20025;-64
2023/05/27 09:06:22;;;;;;;9.13;3.40;;;;;;;25.32;23.13;99654.66;5017831;28;20041;-61
2023/05/27 09:08:48;;;;;;;5.88;3.10;;;;;;;25.48;23.01;99666.97;5015180;28;20100;-62
2023/05/27 09:11:23;;;;;;;8.10;3.50;;;;;;;25.53;22.78;99641.59;5012499;28;20373;-62
2023/05/27 09:13:50;;;;;;;7.10;3.47;;;;;;;25.82;22.08;99661.13;5014139;28;20121;-63
2023/05/27 09:16:20;;;;;;;9.77;3.20;;;;;;;25.87;21.78;99677.72;4999225;28;20069;-62
2023/05/27 09:18:46;;;;;;;6.57;3.17;;;;;;;25.78;22.14;99655.25;5041423;28;20582;-61
2023/05/27 09:21:11;;;;;;;6.90;3.65;;;;;;;25.69;23.12;99636.59;5052982;28;20041;-62
2023/05/27 09:23:39;;;;;;;5.28;3.20;;;;;;;26.05;22.50;99667.81;5052374;28;20029;-66
2023/05/27 09:26:10;;;;;;;9.18;3.13;;;;;;;25.80;22.42;99674.19;5019054;28;20040;-63
2023/05/27 09:28:37;;;;;;;6.78;3.10;;;;;;;25.43;22.46;99674.97;5034774;28;20055;-62
2023/05/27 09:31:05;;;;;;;5.40;2.88;;;;;;;25.17;22.40;99685.13;5051126;28;20052;-62
2023/05/27 09:33:34;;;;;;;6.75;2.95;;;;;;;25.02;22.92;99682.72;5052891;28;20226;-62
2023/05/27 09:36:01;;;;;;;5.05;3.15;;;;;;;24.76;22.99;99668.16;5053116;28;20045;-62
2023/05/27 09:38:34;;;;;;;3.33;3.00;;;;;;;24.73;24.04;99665.84;5053165;28;20116;-68
2023/05/27 09:41:01;;;;;;;6.97;3.20;;;;;;;24.71;24.82;99665.22;5035268;28;20029;-63
2023/05/27 09:43:27;;;;;;;4.07;3.20;;;;;;;24.38;23.76;99595.16;5053064;28;20033;-61
2023/05/27 09:46:05;;;;;;;4.90;3.05;;;;;;;25.18;23.49;99673.09;5052878;28;20028;-61
2023/05/27 09:48:31;;;;;;;5.00;3.13;;;;;;;25.33;22.69;99674.66;5052613;28;20029;-64
2023/05/27 09:50:59;;;;;;;4.95;3.33;;;;;;;25.44;22.89;99664.88;5053550;28;20028;-62
2023/05/27 09:53:26;;;;;;;5.22;3.17;;;;;;;25.70;21.91;99672.03;5034922;28;20037;-61
2023/05/27 09:55:53;;;;;;;7.60;3.20;;;;;;;25.76;21.96;99670.25;5052727;28;20265;-62
2023/05/27 09:58:20;;;;;;;5.32;3.10;;;;;;;25.70;21.89;99676.66;5052684;28;20086;-62
2023/05/27 10:00:47;;;;;;;7.03;3.15;;;;;;;25.72;21.83;99685.47;5034711;28;20449;-62
2023/05/27 10:03:16;;;;;;;4.40;3.03;;;;;;;25.72;22.19;99688.22;5052362;28;20127;-63
2023/05/27 10:05:43;;;;;;;6.95;3.38;;;;;;;25.46;22.43;99681.91;5052527;28;20468;-63
2023/05/27 10:08:08;;;;;;;3.88;3.13;;;;;;;25.04;23.00;99680.59;5034680;28;20078;-61
2023/05/27 10:10:34;;;;;;;8.68;3.60;;;;;;;24.48;23.10;99646.66;5051638;28;20033;-62
2023/05/27 10:13:01;;;;;;;5.90;3.13;;;;;;;24.33;24.04;99646.94;5052637;28;20025;-65
2023/05/27 10:15:28;;;;;;;20.13;3.03;;;;;;;24.56;23.57;99687.44;5052695;28;20036;-62
2023/05/27 10:17:56;;;;;;;7.25;3.20;;;;;;;24.50;24.17;99674.66;5052189;28;20049;-62
2023/05/27 10:20:37;;;;;;;4.90;2.88;;;;;;;24.48;23.66;99652.13;5051945;28;20115;-62
2023/05/27 10:23:15;;;;;;;6.97;3.10;;;;;;;24.66;23.64;99684.22;5052068;28;20044;-62
2023/05/27 10:25:48;;;;;;;6.78;3.10;;;;;;;24.61;23.71;99693.09;5052055;28;20037;-61
2023/05/27 10:28:43;;;;;;;12.52;2.92;;;;;;;24.76;23.27;99687.34;5052232;28;20124;-61
2023/05/27 10:31:17;;;;;;;9.43;3.27;;;;;;;24.55;24.29;99693.13;5035640;28;20068;-62
2023/05/27 10:33:45;;;;;;;5.80;2.65;;;;;;;24.43;24.79;99692.97;5052758;28;20123;-61
2023/05/27 10:36:21;;;;;;;6.88;3.45;;;;;;;24.44;25.13;99691.91;5051794;28;20512;-62
2023/05/27 10:39:00;;;;;;;6.13;3.38;;;;;;;24.32;25.32;99694.50;5051404;28;20029;-61
2023/05/27 10:41:26;;;;;;;6.18;3.20;;;;;;;24.08;25.79;99697.78;5034979;28;20029;-61
2023/05/27 10:43:57;;;;;;;9.10;3.75;;;;;;;24.08;25.79;99703.25;5052604;28;20043;-62
2023/05/27 10:46:23;;;;;;;6.78;3.22;;;;;;;23.99;25.74;99687.25;5051457;28;20460;-64
2023/05/27 10:48:49;;;;;;;5.65;3.10;;;;;;;23.95;25.63;99686.84;5051550;28;20036;-62
2023/05/27 10:51:15;;;;;;;5.82;2.80;;;;;;;24.04;25.84;99687.47;5034608;28;20390;-61
2023/05/27 10:53:40;;;;;;;11.15;3.30;;;;;;;24.01;25.87;99671.47;5052353;28;20120;-62
2023/05/27 10:56:08;;;;;;;7.05;2.97;;;;;;;24.08;24.95;99680.50;5051574;28;20068;-62
2023/05/27 10:58:35;;;;;;;6.53;2.60;;;;;;;24.15;25.35;99697.75;5051585;28;20459;-62
2023/05/27 11:01:09;;;;;;;6.28;2.88;;;;;;;24.29;25.59;99697.69;5052503;28;20404;-62
2023/05/27 11:03:40;;;;;;;5.63;2.83;;;;;;;24.30;25.09;99674.72;5051677;28;20506;-61
2023/05/27 11:06:06;;;;;;;8.95;3.25;;;;;;;24.25;25.24;99690.97;5050235;28;20025;-63
2023/05/27 11:08:33;;;;;;;8.63;3.13;;;;;;;24.15;25.09;99673.13;5051328;28;20052;-64
2023/05/27 11:11:06;;;;;;;6.32;3.45;;;;;;;24.35;25.27;99688.59;5034841;28;20033;-62
2023/05/27 11:13:38;;;;;;;4.03;2.45;;;;;;;24.32;24.62;99689.03;5052269;28;20094;-62
2023/05/27 11:16:05;;;;;;;4.43;2.75;;;;;;;24.11;24.59;99691.00;5051792;28;20083;-67
2023/05/27 11:18:39;;;;;;;4.03;2.95;;;;;;;24.10;24.48;99689.34;5055819;28;20057;-61
2023/05/27 11:21:06;;;;;;;4.15;2.70;;;;;;;24.03;25.27;99677.59;5056023;28;20440;-62
2023/05/27 11:23:43;;;;;;;4.10;2.70;;;;;;;24.23;25.01;99685.69;5055659;28;20032;-62
2023/05/27 11:26:17;;;;;;;3.38;2.60;;;;;;;24.39;24.63;99681.66;5055143;28;20036;-63
2023/05/27 11:28:51;;;;;;;6.97;2.83;;;;;;;24.39;24.00;99670.69;5055702;28;20064;-61
2023/05/27 11:31:26;;;;;;;6.07;2.70;;;;;;;24.39;24.11;99684.38;5054983;28;20041;-63